Devonport, Tasmania

2:02 PM AEST on October 02, 2014 (GMT +1000)
Miandetta | Change Station
CLOSE
Current Station
Personal Weather Station
Location: Miandetta, TASMANIA
Elevation: 128 ft
Nearby Weather Stations

Elev 128 ft 41.19 °S, 146.36 °E | Updated 1 second ago

Scattered Clouds
Scattered Clouds
69.1 °F
Feels Like 69.1 °F
N
5.4
Wind Variable Wind from WSW
Gusts 9.8 mph

Today
High -- | Low -- °F
--% Chance of Precip.
Yesterday
High -- | Low -- °F
Precip. -- in
5:47 AM 6:20 PM
First Quarter, 54% visible
Pressure 29.98 in
Visibility 6.2 miles
Clouds Scattered Clouds 6500 ft
Dew Point 43 °F
Humidity 39%
Rainfall 0.00 in
Snow Depth Not available.
UV 4.0 out of 12
Pollen Not available.
Air Quality Not available.
Flu Activity Not available.
METAR YMLT 010430Z AUTO 29014KT 9999 // SCT065 14/02 Q1015

More Conditions Fewer Conditions

Pressure 29.98 in
Visibility 6.2 miles
Clouds Scattered Clouds 6500 ft
Dew Point 43 °F
Humidity 39%
Rainfall 0.00 in
Snow Depth Not available.
UV 4.0 out of 12
Pollen Not available.
Air Quality Not available.
Flu Activity Not available.
METAR YMLT 010430Z AUTO 29014KT 9999 // SCT065 14/02 Q1015

More Conditions Fewer Conditions

10-Day Weather Forecast

Almanac

Astronomy

Oct. 02, 2014 Rise Set
Actual Time 5:47 AM AEST 6:20 PM AEST
Civil Twilight 5:19 AM AEST 6:48 PM AEST
Nautical Twilight 4:47 AM AEST 7:21 PM AEST
Astronomical Twilight 4:13 AM AEST 7:54 PM AEST
Moon 11:17 AM AEST 1:04 AM AEST
Length of Visible Light 13h 28m
Length of Day
12h 33m
Tomorrow will be 2m 44s longer.
First Quarter, 54% of the Moon is Illuminated
Today
First Quarter
Oct 8
Full
Oct 15
Last Quarter
Oct 23
New
Oct 30
First Quarter

Yesterday's Extremes

Country Highs Country Lows

Community

WunderPhotos

Upload Photos

1,758,179 photos uploaded!

Nearby

Snow Depth

Not available.

Earthquake Activity

City Distance Mag. Time & Date
No recent earthquake activity has been reported nearby.
Minimum magnitude displayed is 2.5.

Coastal Water Temperatures

Place Temperature
No Stations Reporting

Nearby Weather Stations